createdAt,value
2023-05-22T00:01:06.623Z,101724.75
2023-05-22T00:03:33.755Z,101720.97
2023-05-22T00:06:00.554Z,101722.78
2023-05-22T00:08:29.865Z,101714.16
2023-05-22T00:10:56.707Z,101708.91
2023-05-22T00:13:23.294Z,101704.06
2023-05-22T00:15:49.818Z,101706.75
2023-05-22T00:18:16.734Z,101700.50
2023-05-22T00:20:46.487Z,101703.34
2023-05-22T00:23:15.372Z,101695.66
2023-05-22T00:25:42.344Z,101682.44
2023-05-22T00:28:08.959Z,101682.66
2023-05-22T00:30:37.199Z,101677.59
2023-05-22T00:33:04.005Z,101685.84
2023-05-22T00:35:31.029Z,101684.88
2023-05-22T00:37:57.639Z,101685.72
2023-05-22T00:40:24.506Z,101680.50
2023-05-22T00:42:51.117Z,101680.50
2023-05-22T00:45:17.824Z,101678.91
2023-05-22T00:47:44.550Z,101671.88
2023-05-22T00:50:12.506Z,101672.00
2023-05-22T00:52:42.579Z,101670.16
2023-05-22T00:55:10.878Z,101673.69
2023-05-22T00:57:42.081Z,101669.06
2023-05-22T01:00:13.170Z,101669.31
2023-05-22T01:05:13.174Z,101650.25
2023-05-22T01:07:40.284Z,101654.63
2023-05-22T01:10:07.561Z,101652.78
2023-05-22T01:12:37.160Z,101650.13
2023-05-22T01:15:14.165Z,101642.47
2023-05-22T01:17:58.866Z,101650.38
2023-05-22T01:20:32.255Z,101639.69
2023-05-22T01:23:29.554Z,101633.59
2023-05-22T01:26:34.760Z,101628.38
2023-05-22T01:29:40.013Z,101637.38
2023-05-22T01:32:09.659Z,101633.38
2023-05-22T01:34:38.468Z,101637.88
2023-05-22T01:37:05.076Z,101637.88
2023-05-22T01:39:31.911Z,101638.09
2023-05-22T01:41:58.757Z,101637.50
2023-05-22T01:44:25.401Z,101639.44
2023-05-22T01:46:52.471Z,101639.69
2023-05-22T01:49:19.117Z,101627.53
2023-05-22T01:51:49.047Z,101619.06
2023-05-22T01:54:47.581Z,101622.69
2023-05-22T01:57:41.327Z,101615.66
2023-05-22T02:00:11.388Z,101604.25
2023-05-22T02:02:42.395Z,101617.09
2023-05-22T02:05:11.656Z,101609.09
2023-05-22T02:07:40.538Z,101607.66
2023-05-22T02:10:08.530Z,101607.03
2023-05-22T02:12:35.869Z,101601.34
2023-05-22T02:15:03.319Z,101604.34
2023-05-22T02:17:29.831Z,101606.31
2023-05-22T02:19:56.376Z,101602.91
2023-05-22T02:22:22.931Z,101597.56
2023-05-22T02:24:50.118Z,101604.72
2023-05-22T02:27:19.192Z,101609.34
2023-05-22T02:29:46.533Z,101602.53
2023-05-22T02:32:13.001Z,101599.50
2023-05-22T02:34:39.550Z,101585.31
2023-05-22T02:37:06.320Z,101594.16
2023-05-22T02:39:32.806Z,101593.56
2023-05-22T02:41:59.315Z,101602.06
2023-05-22T02:44:25.844Z,101598.16
2023-05-22T02:46:52.480Z,101592.22
2023-05-22T02:49:19.119Z,101594.16
2023-05-22T02:51:47.689Z,101587.13
2023-05-22T02:54:16.120Z,101582.88
2023-05-22T02:56:43.567Z,101585.31
2023-05-22T02:59:10.358Z,101583.97
2023-05-22T03:01:38.726Z,101587.50
2023-05-22T03:04:06.563Z,101584.09
2023-05-22T03:06:35.140Z,101574.63
2023-05-22T03:09:03.770Z,101577.53
2023-05-22T03:11:31.262Z,101588.13
2023-05-22T03:13:58.092Z,101584.84
2023-05-22T03:16:25.034Z,101576.09
2023-05-22T03:18:53.588Z,101567.44
2023-05-22T03:21:20.101Z,101574.50
2023-05-22T03:23:47.186Z,101578.03
2023-05-22T03:26:13.709Z,101575.22
2023-05-22T03:28:40.645Z,101580.19
2023-05-22T03:31:09.355Z,101573.41
2023-05-22T03:33:36.086Z,101577.41
2023-05-22T03:36:03.603Z,101573.19
2023-05-22T03:38:30.123Z,101578.03
2023-05-22T03:40:56.644Z,101578.38
2023-05-22T03:43:24.524Z,101580.22
2023-05-22T03:45:51.173Z,101583.63
2023-05-22T03:48:17.761Z,101584.84
2023-05-22T03:50:44.305Z,101586.53
2023-05-22T03:53:11.247Z,101584.72
2023-05-22T03:55:37.745Z,101584.94
2023-05-22T03:58:04.257Z,101584.00
2023-05-22T04:00:31.749Z,101581.31
2023-05-22T04:02:58.811Z,101578.50
2023-05-22T04:05:25.896Z,101578.03
2023-05-22T04:07:52.420Z,101588.59
2023-05-22T04:10:22.481Z,101581.44
2023-05-22T04:12:49.829Z,101578.03
2023-05-22T04:15:19.212Z,101572.81
2023-05-22T04:17:47.257Z,101585.31
2023-05-22T04:20:14.143Z,101586.03
2023-05-22T04:22:41.281Z,101584.34
2023-05-22T04:25:08.225Z,101587.47
2023-05-22T04:27:35.554Z,101593.56
2023-05-22T04:30:02.849Z,101597.69
2023-05-22T04:32:29.961Z,101609.81
2023-05-22T04:34:58.385Z,101613.72
2023-05-22T04:37:26.550Z,101625.75
2023-05-22T04:39:53.562Z,101615.91
2023-05-22T04:42:20.554Z,101626.22
2023-05-22T04:44:47.150Z,101625.50
2023-05-22T04:47:14.572Z,101633.28
2023-05-22T04:49:43.736Z,101643.38
2023-05-22T04:52:11.624Z,101628.06
2023-05-22T04:54:41.472Z,101644.56
2023-05-22T04:57:07.967Z,101642.88
2023-05-22T04:59:39.395Z,101644.09
2023-05-22T05:02:08.444Z,101642.03
2023-05-22T05:04:34.991Z,101642.88
2023-05-22T05:07:02.378Z,101649.16
2023-05-22T05:09:29.006Z,101647.94
2023-05-22T05:11:55.540Z,101650.16
2023-05-22T05:14:22.074Z,101654.53
2023-05-22T05:16:48.620Z,101642.25
2023-05-22T05:19:16.592Z,101638.97
2023-05-22T05:21:43.155Z,101645.88
2023-05-22T05:24:09.703Z,101641.97
2023-05-22T05:26:36.331Z,101631.78
2023-05-22T05:29:02.925Z,101630.47
2023-05-22T05:31:29.448Z,101633.72
2023-05-22T05:33:58.207Z,101638.34
2023-05-22T05:36:25.286Z,101623.03
2023-05-22T05:38:51.872Z,101629.72
2023-05-22T05:41:19.125Z,101629.34
2023-05-22T05:43:45.777Z,101628.81
2023-05-22T05:46:12.933Z,101634.78
2023-05-22T05:48:39.590Z,101636.22
2023-05-22T05:51:06.722Z,101636.19
2023-05-22T05:53:33.312Z,101625.25
2023-05-22T05:55:59.879Z,101627.66
2023-05-22T05:58:26.382Z,101628.81
2023-05-22T06:00:52.908Z,101621.19
2023-05-22T06:03:19.573Z,101624.91
2023-05-22T06:05:46.275Z,101625.28
2023-05-22T06:08:13.749Z,101624.50
2023-05-22T06:10:40.839Z,101620.19
2023-05-22T06:13:07.989Z,101615.88
2023-05-22T06:15:34.484Z,101613.97
2023-05-22T06:18:02.572Z,101627.81
2023-05-22T06:20:29.151Z,101626.91
2023-05-22T06:22:56.051Z,101637.81
2023-05-22T06:25:25.163Z,101641.69
2023-05-22T06:27:52.328Z,101626.88
2023-05-22T06:30:31.939Z,101647.84
2023-05-22T06:33:05.475Z,101638.13
2023-05-22T06:35:32.571Z,101639.31
2023-05-22T06:37:59.287Z,101641.69
2023-05-22T06:40:25.862Z,101646.53
2023-05-22T06:42:53.184Z,101643.59
2023-05-22T06:45:20.058Z,101649.41
2023-05-22T06:47:46.891Z,101648.69
2023-05-22T06:50:13.486Z,101646.91
2023-05-22T06:52:39.994Z,101643.00
2023-05-22T06:55:07.783Z,101651.34
2023-05-22T06:57:34.699Z,101650.06
2023-05-22T07:00:01.256Z,101643.88
2023-05-22T07:02:27.863Z,101648.66
2023-05-22T07:04:54.495Z,101651.91
2023-05-22T07:07:21.218Z,101661.50
2023-05-22T07:09:47.893Z,101655.69
2023-05-22T07:12:14.622Z,101656.66
2023-05-22T07:14:41.329Z,101650.59
2023-05-22T07:17:08.048Z,101658.06
2023-05-22T07:19:35.822Z,101662.44
2023-05-22T07:22:02.491Z,101664.81
2023-05-22T07:24:29.122Z,101662.09
2023-05-22T07:26:55.644Z,101657.56
2023-05-22T07:29:23.267Z,101665.38
2023-05-22T07:31:49.936Z,101660.47
2023-05-22T07:34:16.689Z,101664.56
2023-05-22T07:36:43.382Z,101663.63
2023-05-22T07:39:09.945Z,101658.28
2023-05-22T07:41:36.842Z,101657.06
2023-05-22T07:44:03.393Z,101652.41
2023-05-22T07:46:29.988Z,101656.13
2023-05-22T07:48:56.753Z,101650.75
2023-05-22T07:51:24.686Z,101654.47
2023-05-22T07:53:51.218Z,101657.88
2023-05-22T07:56:17.824Z,101659.44
2023-05-22T07:58:44.422Z,101664.63
2023-05-22T08:01:11.327Z,101662.38
2023-05-22T08:03:38.086Z,101666.75
2023-05-22T08:06:04.894Z,101660.63
2023-05-22T08:08:32.187Z,101667.88
2023-05-22T08:13:28.180Z,101671.53
2023-05-22T08:16:00.661Z,101662.50
2023-05-22T08:18:29.209Z,101676.41
2023-05-22T08:20:56.335Z,101672.88
2023-05-22T08:23:23.041Z,101675.72
2023-05-22T08:25:50.319Z,101676.91
2023-05-22T08:28:17.544Z,101680.22
2023-05-22T08:30:44.179Z,101664.94
2023-05-22T08:33:12.186Z,101667.31
2023-05-22T08:35:39.175Z,101662.50
2023-05-22T08:38:05.764Z,101666.91
2023-05-22T08:40:37.423Z,101654.59
2023-05-22T08:43:05.437Z,101655.59
2023-05-22T08:45:37.078Z,101658.38
2023-05-22T08:48:08.366Z,101660.13
2023-05-22T08:50:41.822Z,101655.91
2023-05-22T08:53:13.050Z,101647.34
2023-05-22T08:55:39.829Z,101648.44
2023-05-22T08:58:06.708Z,101656.41
2023-05-22T09:00:33.643Z,101655.91
2023-05-22T09:03:00.402Z,101652.19
2023-05-22T09:05:27.504Z,101657.94
2023-05-22T09:08:02.581Z,101653.84
2023-05-22T09:10:35.695Z,101655.06
2023-05-22T09:13:09.821Z,101658.41
2023-05-22T09:15:37.181Z,101651.09
2023-05-22T09:18:05.376Z,101652.28
2023-05-22T09:20:39.082Z,101652.66
2023-05-22T09:23:19.886Z,101646.41
2023-05-22T09:25:46.568Z,101640.16
2023-05-22T09:28:13.308Z,101644.75
2023-05-22T09:30:40.522Z,101637.44
2023-05-22T09:33:09.111Z,101645.34
2023-05-22T09:35:36.938Z,101650.50
2023-05-22T09:38:04.021Z,101644.50
2023-05-22T09:40:34.734Z,101639.13
2023-05-22T09:43:02.172Z,101646.47
2023-05-22T09:45:28.762Z,101637.59
2023-05-22T09:47:55.435Z,101638.81
2023-05-22T09:50:22.069Z,101638.28
2023-05-22T09:52:51.021Z,101638.63
2023-05-22T09:55:20.259Z,101629.84
2023-05-22T09:57:49.718Z,101632.91
2023-05-22T10:00:20.193Z,101629.09
2023-05-22T10:03:15.985Z,101636.31
2023-05-22T10:05:54.679Z,101633.78
2023-05-22T10:08:24.914Z,101637.78
2023-05-22T10:10:53.224Z,101631.63
2023-05-22T10:13:20.934Z,101635.72
2023-05-22T10:15:49.363Z,101634.53
2023-05-22T10:18:17.380Z,101635.06
2023-05-22T10:20:46.740Z,101635.50
2023-05-22T10:23:15.009Z,101636.13
2023-05-22T10:25:42.039Z,101632.38
2023-05-22T10:28:09.818Z,101628.13
2023-05-22T10:31:02.012Z,101636.75
2023-05-22T10:33:50.230Z,101630.81
2023-05-22T10:36:26.925Z,101624.84
2023-05-22T10:39:30.778Z,101622.00
2023-05-22T10:41:57.366Z,101619.91
2023-05-22T10:44:24.084Z,101621.50
2023-05-22T10:46:50.830Z,101615.88
2023-05-22T10:49:22.810Z,101626.19
2023-05-22T10:51:55.512Z,101616.69
2023-05-22T10:54:39.122Z,101614.91
2023-05-22T10:57:18.797Z,101615.34
2023-05-22T10:59:48.513Z,101622.00
2023-05-22T11:02:25.555Z,101617.69
2023-05-22T11:04:52.375Z,101621.16
2023-05-22T11:07:19.028Z,101615.53
2023-05-22T11:09:48.210Z,101609.44
2023-05-22T11:12:25.763Z,101613.19
2023-05-22T11:14:56.642Z,101615.94
2023-05-22T11:17:31.010Z,101609.75
2023-05-22T11:20:08.143Z,101607.75
2023-05-22T11:22:42.880Z,101607.34
2023-05-22T11:25:20.995Z,101597.16
2023-05-22T11:27:48.558Z,101596.50
2023-05-22T11:30:16.544Z,101600.03
2023-05-22T11:32:45.184Z,101593.03
2023-05-22T11:35:18.130Z,101591.22
2023-05-22T11:37:45.503Z,101590.38
2023-05-22T11:40:17.857Z,101577.59
2023-05-22T11:42:44.510Z,101591.84
2023-05-22T11:45:11.642Z,101588.09
2023-05-22T11:47:38.498Z,101588.09
2023-05-22T11:50:08.586Z,101582.19
2023-05-22T11:52:37.723Z,101578.44
2023-05-22T11:55:08.240Z,101576.34
2023-05-22T11:57:35.078Z,101575.50
2023-05-22T12:00:02.273Z,101570.59
2023-05-22T12:02:30.313Z,101580.06
2023-05-22T12:04:57.652Z,101575.00
2023-05-22T12:07:26.575Z,101574.56
2023-05-22T12:09:55.703Z,101574.78
2023-05-22T12:12:22.870Z,101574.03
2023-05-22T12:14:49.652Z,101581.03
2023-05-22T12:17:17.654Z,101577.34
2023-05-22T12:19:44.789Z,101577.78
2023-05-22T12:22:12.237Z,101580.72
2023-05-22T12:24:46.061Z,101574.16
2023-05-22T12:27:13.481Z,101577.44
2023-05-22T12:29:41.067Z,101578.72
2023-05-22T12:32:12.485Z,101575.31
2023-05-22T12:34:44.991Z,101579.78
2023-05-22T12:37:28.276Z,101580.59
2023-05-22T12:39:55.333Z,101579.47
2023-05-22T12:42:21.868Z,101573.34
2023-05-22T12:44:48.568Z,101577.41
2023-05-22T12:47:15.055Z,101575.53
2023-05-22T12:49:41.571Z,101574.22
2023-05-22T12:52:08.260Z,101573.34
2023-05-22T12:54:34.824Z,101575.88
2023-05-22T12:57:01.510Z,101583.00
2023-05-22T12:59:28.019Z,101577.38
2023-05-22T13:01:54.641Z,101579.16
2023-05-22T13:04:21.615Z,101577.16
2023-05-22T13:06:48.127Z,101587.50
2023-05-22T13:09:17.067Z,101596.13
2023-05-22T13:11:43.883Z,101598.59
2023-05-22T13:14:10.492Z,101598.16
2023-05-22T13:16:37.004Z,101594.53
2023-05-22T13:19:03.605Z,101594.47
2023-05-22T13:21:30.151Z,101600.19
2023-05-22T13:23:56.949Z,101609.66
2023-05-22T13:26:23.578Z,101605.13
2023-05-22T13:28:50.707Z,101601.34
2023-05-22T13:31:17.266Z,101593.69
2023-05-22T13:33:43.834Z,101598.28
2023-05-22T13:36:10.832Z,101601.06
2023-05-22T13:38:38.126Z,101598.66
2023-05-22T13:41:05.252Z,101598.56
2023-05-22T13:43:31.980Z,101604.91
2023-05-22T13:45:58.584Z,101598.31
2023-05-22T13:48:25.137Z,101604.00
2023-05-22T13:50:52.353Z,101605.59
2023-05-22T13:53:18.861Z,101616.97
2023-05-22T13:55:45.406Z,101616.97
2023-05-22T13:58:11.903Z,101620.00
2023-05-22T14:00:38.417Z,101620.56
2023-05-22T14:03:05.095Z,101622.16
2023-05-22T14:05:32.101Z,101630.22
2023-05-22T14:07:58.715Z,101620.63
2023-05-22T14:10:25.312Z,101627.44
2023-05-22T14:12:52.182Z,101628.38
2023-05-22T14:15:18.706Z,101638.03
2023-05-22T14:17:45.444Z,101637.28
2023-05-22T14:20:12.047Z,101645.19
2023-05-22T14:22:55.340Z,101650.50
2023-05-22T14:25:23.506Z,101657.66
2023-05-22T14:27:50.037Z,101648.16
2023-05-22T14:30:16.952Z,101657.19
2023-05-22T14:32:43.529Z,101649.72
2023-05-22T14:35:10.140Z,101649.06
2023-05-22T14:37:36.778Z,101659.66
2023-05-22T14:40:03.489Z,101652.44
2023-05-22T14:42:30.048Z,101667.41
2023-05-22T14:44:57.366Z,101664.13
2023-05-22T14:47:23.947Z,101670.50
2023-05-22T14:49:51.042Z,101668.19
2023-05-22T14:52:18.184Z,101678.09
2023-05-22T14:54:44.669Z,101662.75
2023-05-22T14:57:11.302Z,101665.66
2023-05-22T14:59:37.855Z,101671.53
2023-05-22T15:02:04.547Z,101673.97
2023-05-22T15:04:31.249Z,101675.38
2023-05-22T15:06:57.817Z,101677.63
2023-05-22T15:09:24.368Z,101668.16
2023-05-22T15:11:51.132Z,101670.53
2023-05-22T15:14:17.910Z,101677.28
2023-05-22T15:16:44.668Z,101674.72
2023-05-22T15:19:11.419Z,101677.91
2023-05-22T15:21:38.033Z,101672.84
2023-05-22T15:24:04.658Z,101683.44
2023-05-22T15:26:31.179Z,101683.16
2023-05-22T15:29:01.374Z,101687.91
2023-05-22T15:31:28.722Z,101687.94
2023-05-22T15:33:55.504Z,101695.44
2023-05-22T15:36:22.445Z,101705.44
2023-05-22T15:38:49.168Z,101712.00
2023-05-22T15:41:15.656Z,101711.44
2023-05-22T15:43:42.166Z,101717.78
2023-05-22T15:46:10.494Z,101720.28
2023-05-22T15:48:37.007Z,101711.09
2023-05-22T15:51:03.854Z,101725.97
2023-05-22T15:53:30.409Z,101731.56
2023-05-22T15:55:56.912Z,101723.25
2023-05-22T15:58:23.448Z,101722.22
2023-05-22T16:00:49.929Z,101718.06
2023-05-22T16:03:19.408Z,101725.56
2023-05-22T16:05:47.064Z,101715.91
2023-05-22T16:08:16.806Z,101710.50
2023-05-22T16:10:45.302Z,101712.53
2023-05-22T16:13:11.995Z,101706.75
2023-05-22T16:15:40.333Z,101704.59
2023-05-22T16:18:07.620Z,101708.78
2023-05-22T16:20:35.378Z,101711.31
2023-05-22T16:23:02.072Z,101714.53
2023-05-22T16:25:28.769Z,101718.78
2023-05-22T16:27:55.261Z,101721.06
2023-05-22T16:30:21.939Z,101713.97
2023-05-22T16:32:48.824Z,101720.28
2023-05-22T16:35:16.099Z,101713.63
2023-05-22T16:37:42.612Z,101727.00
2023-05-22T16:40:09.607Z,101724.06
2023-05-22T16:42:36.728Z,101724.19
2023-05-22T16:45:06.794Z,101725.97
2023-05-22T16:47:33.292Z,101728.41
2023-05-22T16:50:00.085Z,101732.75
2023-05-22T16:52:26.731Z,101730.44
2023-05-22T16:54:54.044Z,101739.22
2023-05-22T16:57:20.591Z,101743.50
2023-05-22T16:59:47.325Z,101733.91
2023-05-22T17:02:14.074Z,101728.69
2023-05-22T17:04:41.081Z,101729.09
2023-05-22T17:07:07.623Z,101746.41
2023-05-22T17:09:34.469Z,101745.91
2023-05-22T17:12:06.320Z,101749.13
2023-05-22T17:14:34.346Z,101744.88
2023-05-22T17:17:00.874Z,101754.50
2023-05-22T17:19:27.430Z,101750.13
2023-05-22T17:21:53.963Z,101756.56
2023-05-22T17:24:20.489Z,101756.25
2023-05-22T17:26:48.925Z,101754.22
2023-05-22T17:29:15.376Z,101767.31
2023-05-22T17:31:42.073Z,101764.38
2023-05-22T17:34:08.715Z,101765.84
2023-05-22T17:36:36.093Z,101761.41
2023-05-22T17:39:02.776Z,101766.28
2023-05-22T17:41:29.310Z,101761.69
2023-05-22T17:43:57.167Z,101761.31
2023-05-22T17:46:23.889Z,101774.94
2023-05-22T17:48:50.688Z,101771.09
2023-05-22T17:51:17.296Z,101761.88
2023-05-22T17:53:43.880Z,101766.16
2023-05-22T17:56:10.570Z,101781.78
2023-05-22T17:58:37.068Z,101770.91
2023-05-22T18:01:03.744Z,101775.59
2023-05-22T18:03:31.073Z,101775.59
2023-05-22T18:05:57.726Z,101782.81
2023-05-22T18:08:24.442Z,101775.91
2023-05-22T18:10:51.025Z,101782.59
2023-05-22T18:13:19.291Z,101778.44
2023-05-22T18:15:45.908Z,101777.91
2023-05-22T18:18:13.075Z,101779.66
2023-05-22T18:20:40.059Z,101788.22
2023-05-22T18:23:06.884Z,101783.41
2023-05-22T18:25:33.507Z,101797.34
2023-05-22T18:28:00.056Z,101790.47
2023-05-22T18:30:26.548Z,101790.38
2023-05-22T18:32:53.111Z,101790.41
2023-05-22T18:35:19.651Z,101796.94
2023-05-22T18:37:46.338Z,101800.31
2023-05-22T18:40:13.151Z,101807.19
2023-05-22T18:42:39.692Z,101796.13
2023-05-22T18:45:07.064Z,101795.47
2023-05-22T18:47:33.879Z,101797.31
2023-05-22T18:50:00.467Z,101800.28
2023-05-22T18:52:27.009Z,101800.16
2023-05-22T18:54:53.549Z,101812.91
2023-05-22T18:57:20.115Z,101808.41
2023-05-22T18:59:47.222Z,101810.69
2023-05-22T19:02:16.504Z,101809.16
2023-05-22T19:04:43.654Z,101815.81
2023-05-22T19:07:10.357Z,101811.00
2023-05-22T19:09:37.229Z,101811.56
2023-05-22T19:12:04.087Z,101805.63
2023-05-22T19:14:30.999Z,101818.34
2023-05-22T19:17:00.234Z,101824.28
2023-05-22T19:19:27.497Z,101824.69
2023-05-22T19:21:54.390Z,101814.63
2023-05-22T19:24:21.103Z,101826.66
2023-05-22T19:26:47.783Z,101820.28
2023-05-22T19:29:14.632Z,101831.59
2023-05-22T19:31:41.226Z,101828.75
2023-05-22T19:34:07.827Z,101853.09
2023-05-22T19:36:34.736Z,101853.03
2023-05-22T19:39:01.457Z,101858.97
2023-05-22T19:41:28.017Z,101859.50
2023-05-22T19:43:55.179Z,101862.72
2023-05-22T19:46:21.703Z,101867.38
2023-05-22T19:48:48.245Z,101869.34
2023-05-22T19:51:14.748Z,101867.63
2023-05-22T19:53:41.654Z,101873.69
2023-05-22T19:56:08.459Z,101883.00
2023-05-22T19:58:35.048Z,101883.41
2023-05-22T20:01:01.667Z,101878.56
2023-05-22T20:03:28.345Z,101890.56
2023-05-22T20:05:55.610Z,101889.81
2023-05-22T20:08:23.306Z,101896.81
2023-05-22T20:10:49.980Z,101893.44
2023-05-22T20:13:16.656Z,101904.41
2023-05-22T20:15:43.374Z,101903.84
2023-05-22T20:18:10.675Z,101896.31
2023-05-22T20:20:37.285Z,101919.00
2023-05-22T20:23:03.797Z,101918.16
2023-05-22T20:25:30.430Z,101922.13
2023-05-22T20:27:56.908Z,101924.97
2023-05-22T20:30:23.510Z,101914.56
2023-05-22T20:32:50.202Z,101926.13
2023-05-22T20:35:18.918Z,101923.47
2023-05-22T20:37:46.263Z,101935.75
2023-05-22T20:40:14.390Z,101938.94
2023-05-22T20:42:42.827Z,101938.31
2023-05-22T20:45:12.810Z,101950.41
2023-05-22T20:47:40.970Z,101954.81
2023-05-22T20:50:08.987Z,101958.25
2023-05-22T20:52:37.198Z,101968.97
2023-05-22T20:55:04.701Z,101971.72
2023-05-22T20:57:31.465Z,101973.72
2023-05-22T20:59:58.504Z,101976.19
2023-05-22T21:02:26.024Z,101983.41
2023-05-22T21:04:52.762Z,101987.94
2023-05-22T21:07:19.710Z,101985.53
2023-05-22T21:09:46.331Z,101993.78
2023-05-22T21:12:12.961Z,101990.88
2023-05-22T21:14:40.291Z,101986.50
2023-05-22T21:17:07.210Z,101996.72
2023-05-22T21:19:34.017Z,101988.28
2023-05-22T21:22:00.597Z,101986.47
2023-05-22T21:24:27.441Z,101989.41
2023-05-22T21:26:53.983Z,101997.66
2023-05-22T21:29:20.606Z,101996.44
2023-05-22T21:31:47.157Z,102003.72
2023-05-22T21:34:13.749Z,102008.81
2023-05-22T21:36:40.657Z,102005.19
2023-05-22T21:39:07.437Z,101999.38
2023-05-22T21:41:34.117Z,101994.47
2023-05-22T21:44:00.655Z,101990.06
2023-05-22T21:46:27.368Z,101991.03
2023-05-22T21:48:53.967Z,101997.59
2023-05-22T21:51:20.669Z,102006.13
2023-05-22T21:53:47.327Z,101997.97
2023-05-22T21:56:13.936Z,102001.25
2023-05-22T21:58:40.547Z,102013.44
2023-05-22T22:01:07.215Z,102008.09
2023-05-22T22:03:33.814Z,102004.03
2023-05-22T22:06:00.545Z,102000.53
2023-05-22T22:08:28.310Z,101992.75
2023-05-22T22:10:55.434Z,102002.81
2023-05-22T22:13:22.038Z,101996.34
2023-05-22T22:15:48.555Z,102002.91
2023-05-22T22:18:16.046Z,102011.88
2023-05-22T22:20:45.447Z,102008.38
2023-05-22T22:23:12.661Z,102012.75
2023-05-22T22:25:39.644Z,102001.31
2023-05-22T22:28:07.401Z,102003.13
2023-05-22T22:30:35.117Z,101993.31
2023-05-22T22:33:01.979Z,101997.78
2023-05-22T22:35:28.740Z,102008.16
2023-05-22T22:37:55.458Z,102000.22
2023-05-22T22:40:22.231Z,101993.91
2023-05-22T22:42:49.272Z,101995.63
2023-05-22T22:45:16.053Z,101994.63
2023-05-22T22:47:42.615Z,101993.44
2023-05-22T22:50:10.049Z,102003.41
2023-05-22T22:52:37.837Z,101999.03
2023-05-22T22:55:06.678Z,102004.59
2023-05-22T22:57:33.338Z,101996.19
2023-05-22T22:59:59.917Z,101996.31
2023-05-22T23:02:26.522Z,102002.53
2023-05-22T23:04:53.193Z,102009.66
2023-05-22T23:07:19.741Z,102009.66
2023-05-22T23:09:46.287Z,102025.59
2023-05-22T23:12:12.778Z,102020.63
2023-05-22T23:14:39.350Z,102020.72
2023-05-22T23:17:05.906Z,102019.13
2023-05-22T23:19:32.592Z,102013.47
2023-05-22T23:21:59.178Z,102025.47
2023-05-22T23:24:25.835Z,102020.31
2023-05-22T23:26:52.912Z,102030.16
2023-05-22T23:29:19.477Z,102038.53
2023-05-22T23:31:47.546Z,102027.69
2023-05-22T23:34:14.184Z,102034.38
2023-05-22T23:36:41.059Z,102041.06
2023-05-22T23:39:07.829Z,102045.34
2023-05-22T23:41:35.614Z,102032.28
2023-05-22T23:44:02.401Z,102036.59
2023-05-22T23:46:29.489Z,102040.44
2023-05-22T23:48:56.377Z,102040.91
2023-05-22T23:51:23.033Z,102050.22
2023-05-22T23:53:50.823Z,102046.81
2023-05-22T23:56:17.357Z,102051.75
2023-05-22T23:58:43.953Z,102049.72
